Time;durP1;ratioP1;P1;durP2;ratioP2;P2;SDS_P1;SDS_P2;PMS_P1;PMS_P2;Temp;Humidity;BMP_temperature;BMP_pressure;BME280_temperature;BME280_humidity;BME280_pressure;Samples;Min_cycle;Max_cycle;Signal;HPM_P1;HPM_P2
2020/12/04 00:04:44;;;;;;;25.27;17.63;;;;;;;-0.27;78.15;98471.98;517109;1098;65169;-71
2020/12/04 00:14:48;;;;;;;31.05;16.70;;;;;;;-0.27;78.24;98471.98;517066;1093;65192;-68
2020/12/04 00:24:52;;;;;;;28.60;18.10;;;;;;;-0.27;78.79;98451.34;517249;1093;65226;-68
2020/12/04 00:34:56;;;;;;;26.60;18.33;;;;;;;-0.28;78.51;98463.38;517116;1090;65170;-64
2020/12/04 00:45:00;;;;;;;29.80;15.70;;;;;;;-0.28;79.23;98427.27;516955;1098;65524;-67
2020/12/04 00:55:04;;;;;;;29.10;16.03;;;;;;;-0.32;78.52;98421.38;517128;1098;65189;-66
2020/12/04 01:05:08;;;;;;;20.17;14.03;;;;;;;-0.32;78.08;98412.81;517009;1098;65219;-66
2020/12/04 01:15:12;;;;;;;23.90;15.70;;;;;;;-0.32;79.65;98395.58;517268;1093;65584;-66
2020/12/04 01:25:16;;;;;;;26.53;15.13;;;;;;;-0.30;78.62;98364.58;516192;1098;65460;-64
2020/12/04 01:35:19;;;;;;;26.97;15.83;;;;;;;-0.29;79.01;98361.95;516167;1098;65149;-66
2020/12/04 01:45:23;;;;;;;27.73;16.37;;;;;;;-0.28;78.82;98331.81;517007;1098;66211;-67
2020/12/04 01:55:28;;;;;;;25.17;14.53;;;;;;;-0.27;78.75;98350.72;517156;1098;65253;-65
2020/12/04 02:05:32;;;;;;;25.87;15.70;;;;;;;-0.33;78.86;98333.75;516742;1098;65192;-67
2020/12/04 02:15:37;;;;;;;21.75;13.75;;;;;;;-0.42;78.78;98337.50;516953;1098;65480;-66
2020/12/04 02:25:41;;;;;;;22.43;13.57;;;;;;;-0.48;78.43;98317.95;517031;1098;65290;-67
2020/12/04 02:35:45;;;;;;;22.17;13.67;;;;;;;-0.44;78.83;98316.09;517186;1098;65213;-68
2020/12/04 02:45:49;;;;;;;19.57;14.07;;;;;;;-0.50;78.30;98286.23;517045;1098;65222;-68
2020/12/04 02:55:53;;;;;;;26.87;14.83;;;;;;;-0.50;78.78;98287.98;517351;1098;65208;-67
2020/12/04 03:05:57;;;;;;;22.83;14.17;;;;;;;-0.49;77.85;98302.56;517408;1098;65149;-66
2020/12/04 03:16:01;;;;;;;17.65;12.75;;;;;;;-0.48;78.37;98289.59;517226;1098;65217;-68
2020/12/04 03:26:05;;;;;;;20.20;14.63;;;;;;;-0.52;78.43;98276.88;516938;1093;65201;-67
2020/12/04 03:36:09;;;;;;;22.63;14.23;;;;;;;-0.60;77.87;98278.03;516826;1098;65246;-65
2020/12/04 03:46:13;;;;;;;19.20;12.10;;;;;;;-0.63;77.64;98274.73;516915;1098;65220;-66
2020/12/04 03:56:17;;;;;;;19.10;11.60;;;;;;;-0.65;77.50;98285.09;516978;1098;65170;-67
2020/12/04 04:06:21;;;;;;;23.10;13.37;;;;;;;-0.63;77.60;98267.85;516949;1098;65172;-67
2020/12/04 04:16:25;;;;;;;23.30;13.27;;;;;;;-0.58;77.28;98268.49;516867;1098;65597;-68
2020/12/04 04:26:29;;;;;;;22.33;12.70;;;;;;;-0.51;77.59;98257.95;516887;1093;65227;-66
2020/12/04 04:36:33;;;;;;;18.27;12.67;;;;;;;-0.47;78.43;98273.20;516808;1098;65305;-66
2020/12/04 04:46:46;;;;;;;18.37;13.10;;;;;;;-0.42;78.07;98278.19;517008;1098;65612;-66
2020/12/04 04:56:51;;;;;;;20.83;12.13;;;;;;;-0.39;77.68;98246.28;516879;1098;65246;-65
2020/12/04 05:06:55;;;;;;;19.77;13.57;;;;;;;-0.36;77.38;98233.25;517132;1090;65169;-65
2020/12/04 05:16:59;;;;;;;17.23;11.90;;;;;;;-0.38;77.62;98227.32;516931;1098;65412;-67
2020/12/04 05:27:24;;;;;;;18.15;11.70;;;;;;;-0.37;77.38;98205.78;517083;1098;65178;-66
2020/12/04 05:37:28;;;;;;;19.30;10.87;;;;;;;-0.31;77.74;98203.78;517131;1098;65172;-67
2020/12/04 05:47:40;;;;;;;19.07;11.30;;;;;;;-0.30;77.77;98210.61;517030;1093;65269;-66
2020/12/04 05:57:47;;;;;;;26.20;14.60;;;;;;;-0.31;77.84;98227.00;517010;1097;65220;-65
2020/12/04 06:07:55;;;;;;;18.73;12.40;;;;;;;-0.25;77.37;98230.23;516836;1093;65556;-67
2020/12/04 06:18:03;;;;;;;;;;;;;;;-0.19;77.27;98207.60;517186;1098;65147;-66
2020/12/04 06:28:17;;;;;;;24.47;14.57;;;;;;;-0.10;77.97;98210.70;516910;1098;65824;-65
2020/12/04 06:38:46;;;;;;;25.27;15.50;;;;;;;-0.02;77.26;98204.30;516926;1098;65275;-67
2020/12/04 06:59:30;;;;;;;27.63;15.73;;;;;;;0.21;76.97;98209.36;515072;1100;65171;-66
2020/12/04 07:09:35;;;;;;;19.97;14.03;;;;;;;0.33;77.43;98202.83;515073;1101;65249;-66
2020/12/04 07:19:39;;;;;;;19.83;13.13;;;;;;;0.46;76.88;98234.09;514494;1101;65284;-66
2020/12/04 07:29:43;;;;;;;19.63;11.63;;;;;;;0.62;76.91;98211.84;515598;1101;65179;-65
2020/12/04 07:39:47;;;;;;;20.77;13.23;;;;;;;0.80;76.96;98176.56;515334;1101;65607;-66
2020/12/04 07:49:54;;;;;;;21.73;13.37;;;;;;;0.83;76.65;98189.34;517087;1098;65530;-68
2020/12/04 08:00:00;;;;;;;20.30;15.20;;;;;;;0.87;76.26;98174.53;516938;1098;65182;-61
2020/12/04 08:10:04;;;;;;;19.00;13.20;;;;;;;0.81;76.90;98201.50;517271;1098;66352;-63
2020/12/04 08:20:16;;;;;;;22.43;14.63;;;;;;;0.82;76.91;98204.94;516743;1098;67256;-61
2020/12/04 08:30:21;;;;;;;25.53;14.27;;;;;;;0.96;76.58;98230.11;517336;1094;65179;-62
2020/12/04 08:40:28;;;;;;;20.07;14.27;;;;;;;1.18;76.31;98204.11;517187;1098;65976;-61
2020/12/04 08:50:32;;;;;;;22.95;14.70;;;;;;;1.47;75.71;98201.02;517035;1098;65197;-62
2020/12/04 09:00:36;;;;;;;16.23;12.03;;;;;;;1.70;75.15;98197.28;517137;1098;65191;-61
2020/12/04 09:10:41;;;;;;;19.50;12.43;;;;;;;1.90;75.16;98188.50;517064;1098;65287;-62
2020/12/04 09:20:45;;;;;;;20.33;13.53;;;;;;;1.99;74.74;98176.85;517190;1093;65188;-64
2020/12/04 09:30:49;;;;;;;21.97;13.73;;;;;;;2.18;74.62;98168.11;517122;1093;65239;-63
2020/12/04 09:40:53;;;;;;;17.83;11.40;;;;;;;2.40;74.68;98160.05;517175;1098;65536;-63
2020/12/04 09:50:57;;;;;;;20.37;12.77;;;;;;;2.65;74.35;98150.95;517195;1098;65803;-62
2020/12/04 10:01:01;;;;;;;18.17;13.00;;;;;;;2.96;73.18;98138.04;516966;1093;65261;-63
2020/12/04 10:11:05;;;;;;;23.15;14.90;;;;;;;3.25;72.03;98094.87;516734;1098;65647;-66
2020/12/04 10:21:09;;;;;;;18.60;12.50;;;;;;;3.46;72.83;98097.15;516988;1098;65478;-66
2020/12/04 10:31:13;;;;;;;18.83;11.97;;;;;;;3.71;72.54;98121.65;516910;1098;65236;-65
2020/12/04 10:41:17;;;;;;;17.83;10.57;;;;;;;3.88;71.89;98110.25;516896;1098;65238;-62
2020/12/04 10:51:21;;;;;;;16.43;11.37;;;;;;;3.99;71.75;98097.45;516926;1094;65410;-66
2020/12/04 11:01:30;;;;;;;16.87;10.90;;;;;;;4.25;71.71;98115.80;516902;1098;65518;-67
2020/12/04 11:11:34;;;;;;;16.20;10.77;;;;;;;4.69;71.64;98126.95;517244;1098;65189;-65
2020/12/04 11:21:38;;;;;;;20.47;12.00;;;;;;;4.94;70.78;98119.34;517113;1098;65172;-61
2020/12/04 11:31:42;;;;;;;16.27;11.10;;;;;;;5.03;70.50;98097.94;517254;1098;65150;-63
2020/12/04 11:41:47;;;;;;;18.87;12.23;;;;;;;5.22;70.90;98081.94;516770;1098;65143;-62
2020/12/04 11:51:51;;;;;;;15.37;10.60;;;;;;;5.42;70.29;98079.78;517102;1098;65262;-60
2020/12/04 12:01:57;;;;;;;17.05;11.35;;;;;;;5.54;70.01;98078.11;516938;1098;65156;-60
2020/12/04 12:12:01;;;;;;;17.67;11.13;;;;;;;5.69;70.42;98076.24;516728;1093;65584;-61
2020/12/04 12:22:07;;;;;;;11.33;9.53;;;;;;;5.75;69.84;98079.26;516927;1098;65249;-61
2020/12/04 12:32:12;;;;;;;16.47;10.80;;;;;;;5.84;69.41;98079.57;517079;1098;65253;-59
2020/12/04 12:42:18;;;;;;;13.85;10.35;;;;;;;5.88;69.10;98062.78;517292;1092;65182;-56
2020/12/04 12:52:22;;;;;;;13.60;10.35;;;;;;;5.96;69.14;98083.12;516973;1093;65155;-59
2020/12/04 13:02:26;;;;;;;15.27;10.27;;;;;;;6.10;69.25;98085.62;517108;1093;66243;-62
2020/12/04 13:12:30;;;;;;;14.47;9.73;;;;;;;6.05;68.80;98084.27;517313;1098;65168;-63
2020/12/04 13:22:34;;;;;;;10.73;7.93;;;;;;;6.01;68.89;98088.83;517406;1093;65527;-69
2020/12/04 13:32:38;;;;;;;15.27;8.93;;;;;;;5.91;69.00;98095.61;519528;1098;65253;-68
2020/12/04 13:42:42;;;;;;;15.47;8.57;;;;;;;5.93;69.35;98112.81;517313;1098;65217;-64
2020/12/04 13:52:46;;;;;;;11.50;8.73;;;;;;;6.03;69.64;98132.12;517404;1093;65191;-68
2020/12/04 14:02:50;;;;;;;11.70;8.73;;;;;;;6.08;68.85;98134.41;517052;1098;65265;-62
2020/12/04 14:12:54;;;;;;;14.33;9.90;;;;;;;5.99;68.99;98142.83;518192;1098;65245;-72
2020/12/04 14:22:58;;;;;;;14.17;9.90;;;;;;;5.97;69.12;98134.28;517645;1098;65153;-68
2020/12/04 14:33:02;;;;;;;15.47;10.30;;;;;;;6.06;69.12;98133.69;516862;1098;65179;-60
2020/12/04 14:43:07;;;;;;;11.97;8.43;;;;;;;6.09;69.06;98130.86;517637;1093;65166;-71
2020/12/04 14:53:11;;;;;;;11.10;8.40;;;;;;;6.02;68.55;98129.61;517274;1098;65179;-63
2020/12/04 15:03:15;;;;;;;12.13;8.63;;;;;;;5.89;68.80;98120.00;517692;1093;65255;-72
2020/12/04 15:13:19;;;;;;;16.60;10.97;;;;;;;5.85;68.68;98107.28;516906;1098;65133;-66
2020/12/04 15:23:23;;;;;;;14.33;10.30;;;;;;;5.67;68.69;98125.84;517257;1098;65607;-67
2020/12/04 15:33:27;;;;;;;16.50;9.73;;;;;;;5.43;69.38;98138.72;516958;1098;65153;-61
2020/12/04 15:43:31;;;;;;;16.00;10.17;;;;;;;5.27;69.65;98144.10;517604;1098;65208;-66
2020/12/04 15:53:35;;;;;;;13.40;10.10;;;;;;;5.18;70.06;98158.55;517709;1098;65166;-61
2020/12/04 16:03:41;;;;;;;17.60;12.10;;;;;;;4.99;69.80;98164.94;517024;1098;65185;-59
2020/12/04 16:13:46;;;;;;;16.53;11.20;;;;;;;4.86;70.40;98158.84;516887;1098;65286;-65
2020/12/04 16:23:50;;;;;;;18.25;11.90;;;;;;;4.81;70.30;98163.52;507843;1093;10001515;-62
2020/12/04 16:33:54;;;;;;;14.83;9.73;;;;;;;4.70;70.36;98178.03;516239;1098;65576;-64
2020/12/04 16:43:59;;;;;;;12.00;9.90;;;;;;;4.70;70.92;98187.58;516601;1098;65159;-58
2020/12/04 16:54:04;;;;;;;16.33;11.60;;;;;;;4.71;70.92;98199.65;516174;1098;65213;-60
2020/12/04 17:04:11;;;;;;;14.73;9.87;;;;;;;4.66;70.88;98196.52;516018;1098;65632;-68
2020/12/04 17:14:16;;;;;;;16.20;10.75;;;;;;;4.66;70.73;98196.52;516460;1093;65551;-66
2020/12/04 17:24:20;;;;;;;14.20;9.70;;;;;;;4.77;70.67;98194.90;516378;1090;65489;-65
2020/12/04 17:34:24;;;;;;;11.70;9.27;;;;;;;4.77;70.94;98192.30;516519;1098;65644;-62
2020/12/04 17:44:28;;;;;;;12.30;9.80;;;;;;;4.91;71.00;98220.05;516338;1090;65208;-61
2020/12/04 17:54:33;;;;;;;18.20;11.50;;;;;;;5.00;70.71;98220.41;517057;1098;65586;-63
2020/12/04 18:04:37;;;;;;;20.40;11.03;;;;;;;4.96;70.46;98226.72;517004;1090;65176;-60
2020/12/04 18:14:42;;;;;;;13.47;9.53;;;;;;;4.94;70.53;98233.80;516114;1098;65640;-60
2020/12/04 18:24:46;;;;;;;18.63;11.20;;;;;;;4.82;70.53;98241.42;516003;1098;66662;-60
2020/12/04 18:34:50;;;;;;;17.15;10.50;;;;;;;4.80;71.44;98234.67;516323;1098;65644;-60
2020/12/04 18:44:56;;;;;;;13.10;10.07;;;;;;;4.74;71.31;98244.51;516114;1093;65179;-60
2020/12/04 18:55:00;;;;;;;18.25;10.55;;;;;;;4.67;71.56;98252.78;516070;1098;65159;-60
2020/12/04 19:05:08;;;;;;;16.55;10.40;;;;;;;4.63;71.64;98249.53;518485;1098;65612;-58
2020/12/04 19:15:11;;;;;;;14.20;10.10;;;;;;;4.61;71.14;98264.39;529347;1098;65155;-61
2020/12/04 19:25:15;;;;;;;14.20;9.90;;;;;;;4.54;71.42;98265.69;517031;1098;65159;-59
2020/12/04 19:35:19;;;;;;;18.83;11.63;;;;;;;4.52;72.21;98254.55;517246;1098;65227;-61
2020/12/04 19:45:23;;;;;;;20.40;11.03;;;;;;;4.46;72.21;98271.35;516969;1098;65223;-60
2020/12/04 19:55:29;;;;;;;14.20;9.73;;;;;;;4.46;71.84;98276.55;517231;1098;65169;-61
2020/12/04 20:05:33;;;;;;;14.47;10.10;;;;;;;4.46;72.30;98284.34;516863;1098;65653;-59
2020/12/04 20:15:37;;;;;;;17.27;11.37;;;;;;;4.40;72.16;98295.13;516866;1093;65178;-59
2020/12/04 20:25:41;;;;;;;14.33;10.40;;;;;;;4.45;72.55;98287.88;516990;1098;65604;-63
2020/12/04 20:35:45;;;;;;;14.60;10.30;;;;;;;4.57;72.67;98310.54;508062;1098;10001224;-68
2020/12/04 20:45:50;;;;;;;15.70;9.60;;;;;;;4.63;72.45;98299.78;516680;1090;65562;-66
2020/12/04 20:55:53;;;;;;;14.67;10.47;;;;;;;4.77;72.59;98293.72;516198;1090;66565;-60
2020/12/04 21:05:58;;;;;;;14.73;9.57;;;;;;;4.90;72.54;98316.37;516772;1090;65242;-72
2020/12/04 21:16:02;;;;;;;13.47;8.93;;;;;;;5.01;72.15;98313.14;516908;1090;65616;-70
2020/12/04 21:26:06;;;;;;;14.35;9.15;;;;;;;5.13;72.19;98312.38;516195;1090;65144;-67
2020/12/04 21:36:11;;;;;;;12.80;9.37;;;;;;;5.13;71.87;98321.93;515862;1098;65412;-64
2020/12/04 21:46:17;;;;;;;15.35;8.90;;;;;;;5.21;72.18;98331.89;516592;1098;65257;-63
2020/12/04 21:56:23;;;;;;;16.40;11.73;;;;;;;5.27;71.83;98354.92;516368;1098;65214;-68
2020/12/04 22:06:27;;;;;;;14.43;10.30;;;;;;;5.27;71.76;98347.95;516471;1098;65144;-63
2020/12/04 22:16:31;;;;;;;15.35;10.65;;;;;;;5.31;71.96;98349.43;516913;1098;65514;-63
2020/12/04 22:26:35;;;;;;;15.63;10.50;;;;;;;5.32;71.66;98351.09;517077;1098;65151;-66
2020/12/04 22:36:40;;;;;;;17.77;11.70;;;;;;;5.27;71.61;98358.37;516329;1090;65151;-62
2020/12/04 22:46:44;;;;;;;19.00;11.13;;;;;;;5.29;71.93;98358.25;516242;1093;65220;-62
2020/12/04 22:56:48;;;;;;;16.83;11.03;;;;;;;5.32;71.57;98364.11;516417;1098;65272;-64
2020/12/04 23:06:53;;;;;;;16.77;12.20;;;;;;;5.26;72.03;98371.47;516332;1098;65266;-58
2020/12/04 23:17:00;;;;;;;15.90;11.30;;;;;;;5.25;71.78;98359.39;516829;1098;65176;-65
2020/12/04 23:27:04;;;;;;;14.03;10.13;;;;;;;5.27;72.27;98366.17;516818;1098;65172;-61
2020/12/04 23:37:08;;;;;;;16.90;11.85;;;;;;;5.22;72.25;98370.81;517005;1090;66117;-62
2020/12/04 23:47:12;;;;;;;16.77;11.00;;;;;;;5.26;72.10;98374.07;516988;1093;65580;-62
2020/12/04 23:57:16;;;;;;;14.13;10.33;;;;;;;5.28;72.05;98388.67;517681;1093;65841;-65
